createdAt,value
2018-06-02T00:02:07.683Z,4.57
2018-06-02T00:04:38.942Z,4.07
2018-06-02T00:07:11.433Z,4.30
2018-06-02T00:09:42.165Z,4.40
2018-06-02T00:12:12.829Z,4.50
2018-06-02T00:14:43.249Z,6.07
2018-06-02T00:17:13.884Z,4.00
2018-06-02T00:19:45.353Z,3.73
2018-06-02T00:22:16.702Z,4.10
2018-06-02T00:24:47.229Z,4.00
2018-06-02T00:27:18.782Z,4.93
2018-06-02T00:29:57.312Z,4.40
2018-06-02T00:32:29.148Z,4.53
2018-06-02T00:34:59.435Z,5.00
2018-06-02T00:37:31.209Z,4.27
2018-06-02T00:40:02.482Z,4.00
2018-06-02T00:42:33.228Z,5.10
2018-06-02T00:45:06.008Z,4.97
2018-06-02T00:47:36.806Z,5.67
2018-06-02T00:50:08.945Z,5.17
2018-06-02T00:52:39.517Z,5.03
2018-06-02T00:55:10.143Z,5.40
2018-06-02T00:57:42.744Z,5.30
2018-06-02T01:00:13.346Z,6.93
2018-06-02T01:02:45.149Z,5.40
2018-06-02T01:05:18.631Z,8.10
2018-06-02T01:07:53.830Z,4.43
2018-06-02T01:10:27.673Z,5.20
2018-06-02T01:12:59.201Z,4.60
2018-06-02T01:15:29.917Z,4.30
2018-06-02T01:18:00.943Z,4.70
2018-06-02T01:20:32.133Z,4.67
2018-06-02T01:23:02.832Z,4.20
2018-06-02T01:25:33.329Z,4.93
2018-06-02T01:28:06.064Z,4.40
2018-06-02T01:30:37.183Z,4.40
2018-06-02T01:33:10.053Z,6.83
2018-06-02T01:35:40.594Z,5.70
2018-06-02T01:38:11.585Z,4.87
2018-06-02T01:40:42.106Z,4.83
2018-06-02T01:43:15.918Z,4.30
2018-06-02T01:46:13.586Z,4.57
2018-06-02T01:48:49.419Z,4.40
2018-06-02T01:51:19.964Z,4.87
2018-06-02T01:53:52.671Z,4.50
2018-06-02T01:56:23.688Z,4.10
2018-06-02T01:58:55.645Z,3.77
2018-06-02T02:01:28.214Z,5.77
2018-06-02T02:03:59.284Z,5.47
2018-06-02T02:06:31.259Z,4.10
2018-06-02T02:09:11.482Z,3.93
2018-06-02T02:11:43.377Z,5.00
2018-06-02T02:14:14.971Z,4.53
2018-06-02T02:16:46.394Z,5.90
2018-06-02T02:19:17.612Z,4.90
2018-06-02T02:21:49.758Z,4.63
2018-06-02T02:24:22.109Z,6.43
2018-06-02T02:26:53.724Z,5.00
2018-06-02T02:29:25.520Z,4.63
2018-06-02T02:31:56.999Z,6.93
2018-06-02T02:34:28.470Z,9.23
2018-06-02T02:36:59.126Z,5.20
2018-06-02T02:39:29.630Z,5.33
2018-06-02T02:42:01.149Z,6.00
2018-06-02T02:44:32.545Z,8.27
2018-06-02T02:47:03.889Z,5.00
2018-06-02T02:49:34.484Z,5.93
2018-06-02T02:52:04.533Z,4.57
2018-06-02T02:54:35.073Z,4.53
2018-06-02T02:57:05.760Z,5.60
2018-06-02T02:59:37.858Z,4.70
2018-06-02T03:02:08.478Z,4.67
2018-06-02T03:04:40.499Z,4.90
2018-06-02T03:07:11.337Z,5.03
2018-06-02T03:09:42.809Z,4.93
2018-06-02T03:12:13.707Z,5.50
2018-06-02T03:14:44.566Z,7.70
2018-06-02T03:17:18.427Z,8.83
2018-06-02T03:19:50.028Z,5.67
2018-06-02T03:22:29.266Z,6.27
2018-06-02T03:25:03.630Z,6.27
2018-06-02T03:27:34.385Z,5.63
2018-06-02T03:30:05.121Z,5.97
2018-06-02T03:32:37.410Z,6.07
2018-06-02T03:35:08.875Z,5.83
2018-06-02T03:37:40.907Z,6.80
2018-06-02T03:40:11.517Z,5.47
2018-06-02T03:42:42.338Z,6.73
2018-06-02T03:45:12.868Z,6.90
2018-06-02T03:50:23.703Z,6.93
2018-06-02T03:52:54.973Z,7.63
2018-06-02T03:55:25.386Z,6.60
2018-06-02T03:57:56.811Z,5.87
2018-06-02T04:00:28.833Z,6.17
2018-06-02T04:02:59.211Z,9.80
2018-06-02T04:05:30.273Z,7.53
2018-06-02T04:08:11.297Z,7.90
2018-06-02T04:10:55.505Z,7.13
2018-06-02T04:13:26.895Z,8.17
2018-06-02T04:15:58.814Z,8.20
2018-06-02T04:18:29.116Z,8.20
2018-06-02T04:21:00.521Z,7.30
2018-06-02T04:23:31.376Z,8.87
2018-06-02T04:26:02.717Z,7.67
2018-06-02T04:28:33.155Z,8.73
2018-06-02T04:31:05.210Z,5.97
2018-06-02T04:33:35.937Z,6.43
2018-06-02T04:36:08.648Z,7.87
2018-06-02T04:38:39.979Z,9.30
2018-06-02T04:41:11.613Z,7.40
2018-06-02T04:43:42.706Z,6.83
2018-06-02T04:46:13.144Z,11.17
2018-06-02T04:48:43.478Z,7.50
2018-06-02T04:51:15.253Z,8.37
2018-06-02T04:53:48.201Z,13.83
2018-06-02T04:56:21.289Z,10.17
2018-06-02T04:58:54.716Z,7.53
2018-06-02T05:01:26.507Z,8.43
2018-06-02T05:03:59.163Z,7.57
2018-06-02T05:06:31.255Z,7.20
2018-06-02T05:09:02.918Z,8.97
2018-06-02T05:11:35.218Z,7.23
2018-06-02T05:14:05.973Z,8.07
2018-06-02T05:16:37.413Z,8.43
2018-06-02T05:19:08.017Z,8.67
2018-06-02T05:21:39.323Z,9.53
2018-06-02T05:24:10.318Z,9.00
2018-06-02T05:26:47.820Z,8.10
2018-06-02T05:29:20.178Z,10.10
2018-06-02T05:31:57.328Z,9.47
2018-06-02T05:34:36.571Z,8.53
2018-06-02T05:37:12.137Z,9.73
2018-06-02T05:39:42.621Z,5.73
2018-06-02T05:42:13.123Z,9.30
2018-06-02T05:44:43.912Z,9.63
2018-06-02T05:47:16.283Z,5.43
2018-06-02T05:49:50.917Z,8.00
2018-06-02T05:52:21.353Z,9.83
2018-06-02T05:54:52.637Z,6.10
2018-06-02T05:57:25.035Z,8.20
2018-06-02T05:59:55.618Z,8.23
2018-06-02T06:02:26.682Z,7.73
2018-06-02T06:04:58.059Z,9.13
2018-06-02T06:07:29.630Z,6.37
2018-06-02T06:10:00.720Z,7.70
2018-06-02T06:12:32.571Z,7.47
2018-06-02T06:15:04.600Z,8.90
2018-06-02T06:17:35.340Z,9.00
2018-06-02T06:20:06.304Z,6.60
2018-06-02T06:22:38.193Z,9.93
2018-06-02T06:25:08.868Z,9.00
2018-06-02T06:27:40.819Z,7.90
2018-06-02T06:30:12.237Z,8.03
2018-06-02T06:32:44.548Z,6.73
2018-06-02T06:35:16.880Z,7.03
2018-06-02T06:37:47.952Z,10.03
2018-06-02T06:40:19.820Z,7.57
2018-06-02T06:42:50.098Z,8.43
2018-06-02T06:45:21.750Z,17.20
2018-06-02T06:47:52.917Z,8.27
2018-06-02T06:50:24.650Z,5.03
2018-06-02T06:52:55.286Z,6.27
2018-06-02T06:55:34.323Z,10.10
2018-06-02T06:58:05.158Z,6.07
2018-06-02T07:00:37.178Z,8.50
2018-06-02T07:03:08.894Z,6.97
2018-06-02T07:05:39.488Z,6.43
2018-06-02T07:08:10.234Z,6.73
2018-06-02T07:10:40.440Z,5.70
2018-06-02T07:13:13.476Z,6.30
2018-06-02T07:15:45.273Z,5.93
2018-06-02T07:18:18.123Z,8.23
2018-06-02T07:20:49.196Z,7.57
2018-06-02T07:23:21.586Z,7.30
2018-06-02T07:25:52.892Z,6.30
2018-06-02T07:28:32.913Z,7.07
2018-06-02T07:31:03.696Z,11.03
2018-06-02T07:33:34.447Z,6.33
2018-06-02T07:36:05.891Z,7.10
2018-06-02T07:38:36.733Z,5.97
2018-06-02T07:41:10.610Z,8.57
2018-06-02T07:43:41.316Z,7.43
2018-06-02T07:46:12.706Z,6.90
2018-06-02T07:48:45.988Z,5.43
2018-06-02T07:51:16.860Z,6.33
2018-06-02T07:53:47.548Z,6.67
2018-06-02T07:56:21.937Z,6.33
2018-06-02T07:58:59.459Z,5.23
2018-06-02T08:01:36.509Z,5.00
2018-06-02T08:09:44.890Z,9.70
2018-06-02T08:12:16.688Z,4.03
2018-06-02T08:14:48.714Z,7.57
2018-06-02T08:17:20.986Z,6.23
2018-06-02T08:19:51.876Z,4.70
2018-06-02T08:22:24.191Z,4.93
2018-06-02T08:24:55.583Z,4.10
2018-06-02T08:27:27.707Z,7.33
2018-06-02T08:30:00.126Z,4.43
2018-06-02T08:33:00.582Z,4.83
2018-06-02T08:35:31.184Z,4.63
2018-06-02T08:38:01.573Z,5.37
2018-06-02T08:40:32.541Z,7.00
2018-06-02T08:43:03.776Z,7.53
2018-06-02T08:45:35.200Z,5.57
2018-06-02T08:48:05.164Z,6.03
2018-06-02T08:50:36.421Z,4.07
2018-06-02T08:53:08.613Z,8.30
2018-06-02T08:55:40.033Z,4.43
2018-06-02T08:58:11.117Z,3.80
2018-06-02T09:00:47.357Z,4.03
2018-06-02T09:03:18.439Z,5.70
2018-06-02T09:05:50.613Z,4.03
2018-06-02T09:08:22.359Z,5.53
2018-06-02T09:10:52.814Z,6.37
2018-06-02T09:13:23.546Z,3.70
2018-06-02T09:15:54.790Z,3.63
2018-06-02T09:18:27.654Z,3.93
2018-06-02T09:20:58.605Z,7.93
2018-06-02T09:23:31.943Z,5.43
2018-06-02T09:26:07.702Z,3.57
2018-06-02T09:28:38.547Z,6.50
2018-06-02T09:31:09.543Z,4.23
2018-06-02T09:33:40.470Z,3.70
2018-06-02T09:36:11.427Z,3.67
2018-06-02T09:38:42.767Z,5.27
2018-06-02T09:41:13.185Z,4.47
2018-06-02T09:43:43.575Z,3.77
2018-06-02T09:46:15.376Z,4.00
2018-06-02T09:48:46.606Z,4.63
2018-06-02T09:51:18.412Z,4.03
2018-06-02T09:53:49.007Z,10.83
2018-06-02T09:56:21.707Z,3.87
2018-06-02T09:58:53.561Z,3.37
2018-06-02T10:01:26.993Z,6.63
2018-06-02T10:03:57.854Z,4.10
2018-06-02T10:06:32.693Z,3.13
2018-06-02T10:09:03.677Z,3.37
2018-06-02T10:11:34.581Z,3.87
2018-06-02T10:14:05.151Z,8.00
2018-06-02T10:16:36.725Z,4.23
2018-06-02T10:19:08.831Z,4.17
2018-06-02T10:21:43.995Z,6.00
2018-06-02T10:26:55.011Z,3.77
2018-06-02T10:29:26.149Z,3.83
2018-06-02T10:31:56.888Z,3.87
2018-06-02T10:34:28.066Z,4.03
2018-06-02T10:36:58.906Z,3.20
2018-06-02T10:39:30.298Z,4.83
2018-06-02T10:42:01.341Z,3.40
2018-06-02T10:44:35.837Z,5.03
2018-06-02T10:47:09.255Z,7.23
2018-06-02T10:49:51.027Z,3.40
2018-06-02T10:52:30.024Z,3.20
2018-06-02T10:55:04.914Z,3.27
2018-06-02T10:57:37.516Z,6.43
2018-06-02T11:00:13.055Z,4.73
2018-06-02T11:02:49.850Z,3.67
2018-06-02T11:05:21.779Z,6.77
2018-06-02T11:08:01.429Z,4.93
2018-06-02T11:10:44.847Z,3.70
2018-06-02T11:13:29.737Z,2.90
2018-06-02T11:16:03.341Z,3.53
2018-06-02T11:18:33.608Z,3.90
2018-06-02T11:21:04.360Z,3.00
2018-06-02T11:23:36.888Z,3.30
2018-06-02T11:26:07.584Z,5.80
2018-06-02T11:28:39.001Z,3.67
2018-06-02T11:31:11.274Z,3.77
2018-06-02T11:33:42.001Z,4.00
2018-06-02T11:36:13.674Z,2.77
2018-06-02T11:38:44.365Z,3.20
2018-06-02T11:41:16.177Z,2.67
2018-06-02T11:43:46.943Z,2.80
2018-06-02T11:46:19.479Z,3.20
2018-06-02T11:49:00.150Z,3.93
2018-06-02T11:51:30.092Z,3.40
2018-06-02T11:54:00.767Z,3.13
2018-06-02T11:56:31.865Z,3.37
2018-06-02T11:59:02.655Z,3.63
2018-06-02T12:01:33.549Z,3.77
2018-06-02T12:04:04.116Z,3.23
2018-06-02T12:06:36.890Z,3.53
2018-06-02T12:09:09.062Z,4.70
2018-06-02T12:11:44.109Z,4.13
2018-06-02T12:14:15.787Z,4.50
2018-06-02T12:16:46.683Z,3.97
2018-06-02T12:19:21.338Z,2.93
2018-06-02T12:21:55.501Z,5.90
2018-06-02T12:24:28.519Z,2.90
2018-06-02T12:26:59.470Z,4.90
2018-06-02T12:29:30.798Z,2.90
2018-06-02T12:32:06.904Z,2.97
2018-06-02T12:34:39.031Z,3.13
2018-06-02T12:37:10.390Z,2.70
2018-06-02T12:39:43.668Z,4.60
2018-06-02T12:42:15.848Z,3.73
2018-06-02T12:44:48.781Z,3.07
2018-06-02T12:47:20.564Z,3.00
2018-06-02T12:49:52.203Z,4.57
2018-06-02T12:52:23.132Z,3.73
2018-06-02T12:54:54.835Z,3.23
2018-06-02T12:57:27.779Z,2.93
2018-06-02T12:59:59.830Z,4.77
2018-06-02T13:02:35.132Z,2.90
2018-06-02T13:05:07.063Z,3.37
2018-06-02T13:07:40.024Z,3.27
2018-06-02T13:10:10.883Z,3.60
2018-06-02T13:12:41.723Z,3.97
2018-06-02T13:15:13.866Z,3.60
2018-06-02T13:17:48.159Z,4.80
2018-06-02T13:20:18.958Z,2.83
2018-06-02T13:22:50.724Z,3.37
2018-06-02T13:25:23.370Z,6.23
2018-06-02T13:27:54.839Z,2.60
2018-06-02T13:30:25.407Z,3.80
2018-06-02T13:32:56.538Z,2.70
2018-06-02T13:35:28.808Z,3.20
2018-06-02T13:37:59.678Z,2.70
2018-06-02T13:40:30.945Z,3.17
2018-06-02T13:43:02.009Z,2.27
2018-06-02T13:45:33.601Z,2.97
2018-06-02T13:48:03.657Z,2.53
2018-06-02T13:50:36.532Z,2.90
2018-06-02T13:53:07.342Z,3.67
2018-06-02T13:55:53.925Z,5.93
2018-06-02T13:58:26.627Z,4.97
2018-06-02T14:06:29.205Z,2.33
2018-06-02T14:09:03.609Z,2.53
2018-06-02T14:11:35.357Z,1.97
2018-06-02T14:14:08.676Z,2.30
2018-06-02T14:16:39.485Z,2.60
2018-06-02T14:19:11.054Z,2.10
2018-06-02T14:21:42.479Z,2.40
2018-06-02T14:24:17.011Z,2.50
2018-06-02T14:26:49.665Z,5.27
2018-06-02T14:29:20.982Z,2.47
2018-06-02T14:31:52.366Z,5.97
2018-06-02T14:34:24.437Z,2.50
2018-06-02T14:36:54.862Z,2.70
2018-06-02T14:39:26.756Z,2.50
2018-06-02T14:42:00.296Z,2.40
2018-06-02T14:44:31.009Z,3.10
2018-06-02T14:47:01.335Z,3.17
2018-06-02T14:49:32.923Z,3.43
2018-06-02T14:52:04.031Z,2.10
2018-06-02T14:54:35.251Z,2.80
2018-06-02T14:57:07.130Z,1.93
2018-06-02T14:59:40.951Z,2.23
2018-06-02T15:02:11.400Z,2.50
2018-06-02T15:04:42.382Z,2.40
2018-06-02T15:07:21.214Z,2.40
2018-06-02T15:09:52.788Z,2.80
2018-06-02T15:12:40.428Z,3.13
2018-06-02T15:15:11.696Z,2.67
2018-06-02T15:17:42.716Z,2.97
2018-06-02T15:20:13.357Z,2.43
2018-06-02T15:22:44.068Z,2.33
2018-06-02T15:25:15.851Z,2.60
2018-06-02T15:27:48.753Z,3.10
2018-06-02T15:30:25.410Z,2.80
2018-06-02T15:32:56.638Z,2.73
2018-06-02T15:35:35.828Z,3.10
2018-06-02T15:38:06.604Z,2.70
2018-06-02T15:40:38.681Z,2.20
2018-06-02T15:43:10.131Z,3.20
2018-06-02T15:45:40.928Z,4.03
2018-06-02T15:48:17.564Z,3.90
2018-06-02T15:50:49.497Z,6.20
2018-06-02T15:53:21.298Z,3.97
2018-06-02T15:55:56.169Z,3.13
2018-06-02T15:58:27.212Z,4.17
2018-06-02T16:00:58.362Z,3.53
2018-06-02T16:03:39.796Z,2.63
2018-06-02T16:06:17.768Z,2.93
2018-06-02T16:09:02.026Z,4.13
2018-06-02T16:11:35.193Z,6.20
2018-06-02T16:14:05.688Z,2.90
2018-06-02T16:16:58.607Z,2.97
2018-06-02T16:19:29.185Z,3.10
2018-06-02T16:22:02.868Z,3.03
2018-06-02T16:24:34.491Z,4.70
2018-06-02T16:27:05.809Z,3.10
2018-06-02T16:29:36.208Z,2.90
2018-06-02T16:32:07.057Z,3.10
2018-06-02T16:34:37.728Z,3.30
2018-06-02T16:37:09.349Z,3.43
2018-06-02T16:39:41.442Z,2.70
2018-06-02T16:42:13.883Z,2.60
2018-06-02T16:44:45.405Z,3.07
2018-06-02T16:47:17.109Z,3.37
2018-06-02T16:49:48.481Z,3.00
2018-06-02T16:52:19.539Z,3.17
2018-06-02T16:54:51.571Z,3.67
2018-06-02T16:57:23.559Z,2.80
2018-06-02T16:59:55.818Z,3.00
2018-06-02T17:02:27.350Z,2.87
2018-06-02T17:04:58.629Z,2.70
2018-06-02T17:07:30.275Z,5.53
2018-06-02T17:10:02.174Z,4.23
2018-06-02T17:12:33.468Z,3.20
2018-06-02T17:15:05.943Z,4.03
2018-06-02T17:17:36.722Z,2.70
2018-06-02T17:20:08.451Z,3.00
2018-06-02T17:22:40.335Z,3.70
2018-06-02T17:25:12.325Z,3.23
2018-06-02T17:27:46.192Z,3.30
2018-06-02T17:30:18.676Z,3.00
2018-06-02T17:32:50.783Z,3.23
2018-06-02T17:35:21.832Z,5.13
2018-06-02T17:37:54.507Z,4.00
2018-06-02T17:40:30.855Z,3.33
2018-06-02T17:43:02.651Z,2.80
2018-06-02T17:48:27.763Z,3.40
2018-06-02T17:50:58.326Z,7.07
2018-06-02T17:53:29.800Z,3.47
2018-06-02T17:56:00.494Z,3.40
2018-06-02T17:58:37.087Z,2.93
2018-06-02T18:01:15.866Z,2.53
2018-06-02T18:03:47.213Z,3.17
2018-06-02T18:06:18.071Z,6.37
2018-06-02T18:08:51.717Z,3.30
2018-06-02T18:11:22.622Z,4.10
2018-06-02T18:13:56.167Z,4.00
2018-06-02T18:16:27.248Z,2.73
2018-06-02T18:18:59.179Z,6.67
2018-06-02T18:21:29.883Z,2.30
2018-06-02T18:24:02.452Z,3.53
2018-06-02T18:26:37.152Z,2.83
2018-06-02T18:29:08.009Z,3.00
2018-06-02T18:31:40.288Z,2.90
2018-06-02T18:34:11.057Z,3.20
2018-06-02T18:36:41.674Z,2.80
2018-06-02T18:39:12.341Z,2.47
2018-06-02T18:41:48.972Z,3.83
2018-06-02T18:44:27.400Z,3.33
2018-06-02T18:46:58.817Z,4.90
2018-06-02T18:49:29.234Z,3.13
2018-06-02T18:52:07.848Z,3.40
2018-06-02T18:54:39.316Z,3.77
2018-06-02T18:57:11.286Z,2.93
2018-06-02T18:59:57.470Z,3.20
2018-06-02T19:02:30.520Z,3.27
2018-06-02T19:05:01.062Z,3.00
2018-06-02T19:07:32.131Z,3.83
2018-06-02T19:10:04.800Z,5.00
2018-06-02T19:12:36.936Z,3.60
2018-06-02T19:15:07.899Z,3.50
2018-06-02T19:17:38.992Z,3.30
2018-06-02T19:20:11.210Z,3.10
2018-06-02T19:22:43.141Z,5.10
2018-06-02T19:25:13.957Z,3.37
2018-06-02T19:27:46.881Z,4.30
2018-06-02T19:30:18.650Z,5.70
2018-06-02T19:32:49.701Z,2.97
2018-06-02T19:35:22.145Z,3.27
2018-06-02T19:37:52.992Z,4.83
2018-06-02T19:40:26.236Z,3.47
2018-06-02T19:42:59.701Z,7.53
2018-06-02T19:45:34.381Z,5.43
2018-06-02T19:48:05.684Z,3.73
2018-06-02T19:50:36.616Z,3.63
2018-06-02T19:53:07.164Z,3.67
2018-06-02T19:55:39.765Z,5.00
2018-06-02T19:58:14.257Z,6.40
2018-06-02T20:00:55.445Z,5.07
2018-06-02T20:03:31.693Z,3.97
2018-06-02T20:09:08.397Z,5.10
2018-06-02T20:11:39.781Z,5.80
2018-06-02T20:14:20.286Z,4.63
2018-06-02T20:16:54.996Z,4.30
2018-06-02T20:19:27.680Z,4.87
2018-06-02T20:22:01.477Z,9.10
2018-06-02T20:24:34.082Z,5.73
2018-06-02T20:27:06.969Z,4.93
2018-06-02T20:29:41.829Z,4.60
2018-06-02T20:32:12.871Z,4.87
2018-06-02T20:34:47.034Z,4.57
2018-06-02T20:37:33.662Z,5.50
2018-06-02T20:40:08.347Z,5.37
2018-06-02T20:42:40.201Z,5.03
2018-06-02T20:45:11.571Z,4.27
2018-06-02T20:47:44.119Z,4.43
2018-06-02T20:50:18.213Z,4.80
2018-06-02T20:52:50.251Z,5.57
2018-06-02T20:55:22.715Z,8.60
2018-06-02T20:57:56.534Z,4.50
2018-06-02T21:00:28.221Z,8.00
2018-06-02T21:03:00.956Z,7.10
2018-06-02T21:05:32.562Z,6.30
2018-06-02T21:08:03.079Z,5.30
2018-06-02T21:10:34.990Z,6.63
2018-06-02T21:13:09.667Z,6.27
2018-06-02T21:15:40.626Z,6.43
2018-06-02T21:18:14.049Z,7.23
2018-06-02T21:20:46.161Z,5.33
2018-06-02T21:23:18.867Z,7.87
2018-06-02T21:25:53.065Z,5.53
2018-06-02T21:28:26.091Z,7.37
2018-06-02T21:31:01.478Z,5.97
2018-06-02T21:33:35.681Z,6.00
2018-06-02T21:36:09.290Z,8.20
2018-06-02T21:38:44.172Z,5.43
2018-06-02T21:41:19.176Z,7.70
2018-06-02T21:43:53.671Z,6.27
2018-06-02T21:46:33.019Z,5.07
2018-06-02T21:49:03.787Z,5.87
2018-06-02T21:51:34.444Z,6.00
2018-06-02T21:54:06.571Z,6.37
2018-06-02T21:56:37.313Z,7.23
2018-06-02T21:59:09.042Z,5.77
2018-06-02T22:01:43.831Z,5.63
2018-06-02T22:06:59.263Z,5.80
2018-06-02T22:09:30.123Z,6.13
2018-06-02T22:12:01.828Z,5.77
2018-06-02T22:14:32.158Z,5.57
2018-06-02T22:17:04.086Z,5.37
2018-06-02T22:19:37.840Z,5.53
2018-06-02T22:22:09.791Z,5.33
2018-06-02T22:24:42.299Z,5.93
2018-06-02T22:27:14.724Z,5.73
2018-06-02T22:29:45.387Z,6.17
2018-06-02T22:32:18.361Z,5.30
2018-06-02T22:34:49.481Z,7.83
2018-06-02T22:37:22.233Z,5.13
2018-06-02T22:39:57.901Z,6.47
2018-06-02T22:42:31.298Z,5.90
2018-06-02T22:45:02.106Z,5.90
2018-06-02T22:47:32.393Z,7.00
2018-06-02T22:50:03.770Z,5.60
2018-06-02T22:52:33.947Z,5.73
2018-06-02T22:55:04.008Z,6.37
2018-06-02T22:57:34.448Z,5.80
2018-06-02T23:00:04.577Z,5.30
2018-06-02T23:02:36.365Z,5.83
2018-06-02T23:05:16.022Z,5.97
2018-06-02T23:07:47.844Z,5.30
2018-06-02T23:10:19.136Z,6.57
2018-06-02T23:12:50.598Z,5.70
2018-06-02T23:15:20.662Z,6.30
2018-06-02T23:17:53.495Z,6.83
2018-06-02T23:20:24.076Z,6.37
2018-06-02T23:22:54.942Z,7.40
2018-06-02T23:25:26.965Z,6.37
2018-06-02T23:27:58.195Z,7.07
